Time;durP1;ratioP1;P1;durP2;ratioP2;P2;SDS_P1;SDS_P2;PMS_P1;PMS_P2;Temp;Humidity;BMP_temperature;BMP_pressure;BME280_temperature;BME280_humidity;BME280_pressure;Samples;Min_cycle;Max_cycle;Signal;HPM_P1;HPM_P2
2023/02/12 00:01:41;;;;;;;56.03;33.53;;;4.40;64.40;;;;;;6246787;23;20083;-65
2023/02/12 00:04:07;;;;;;;54.50;30.07;;;4.40;64.40;;;;;;6246703;23;20032;-75
2023/02/12 00:06:33;;;;;;;55.43;32.93;;;4.30;64.10;;;;;;6246383;23;20012;-64
2023/02/12 00:08:59;;;;;;;55.13;32.80;;;4.40;64.00;;;;;;6247059;23;20010;-64
2023/02/12 00:11:27;;;;;;;58.93;35.43;;;4.30;64.40;;;;;;6246684;23;20389;-66
2023/02/12 00:13:53;;;;;;;54.43;34.97;;;4.30;64.40;;;;;;6247138;23;20477;-65
2023/02/12 00:16:23;;;;;;;62.80;36.43;;;4.20;63.90;;;;;;6246754;23;20087;-66
2023/02/12 00:18:51;;;;;;;60.83;35.80;;;4.20;64.50;;;;;;6246858;23;20431;-65
2023/02/12 00:21:17;;;;;;;56.20;36.33;;;4.20;64.60;;;;;;6247013;23;20020;-65
2023/02/12 00:23:43;;;;;;;63.90;36.60;;;4.20;64.60;;;;;;6247169;23;20057;-64
2023/02/12 00:26:12;;;;;;;68.23;35.87;;;4.20;64.60;;;;;;6246816;23;20012;-64
2023/02/12 00:28:38;;;;;;;60.00;35.77;;;4.10;64.60;;;;;;6247073;23;20443;-65
2023/02/12 00:31:18;;;;;;;62.00;35.30;;;4.10;64.80;;;;;;6246790;23;20489;-65
2023/02/12 00:33:44;;;;;;;61.13;35.33;;;4.10;64.80;;;;;;6246631;23;20467;-64
2023/02/12 00:36:16;;;;;;;62.57;35.83;;;4.00;64.70;;;;;;6246774;23;20008;-65
2023/02/12 00:38:42;;;;;;;53.43;33.70;;;4.00;64.60;;;;;;6246320;23;20000;-64
2023/02/12 00:41:08;;;;;;;64.83;35.87;;;4.00;64.70;;;;;;6246772;23;20000;-64
2023/02/12 00:43:34;;;;;;;51.97;33.70;;;4.00;64.70;;;;;;6246703;23;20003;-65
2023/02/12 00:45:59;;;;;;;57.13;33.70;;;4.00;64.60;;;;;;6246741;23;20016;-65
2023/02/12 00:48:25;;;;;;;54.07;33.37;;;4.00;64.50;;;;;;6246954;23;20058;-65
2023/02/12 00:50:50;;;;;;;58.83;34.03;;;4.00;64.60;;;;;;6246453;23;20008;-64
2023/02/12 00:53:16;;;;;;;58.07;33.77;;;4.00;64.70;;;;;;6246583;23;20027;-64
2023/02/12 00:55:42;;;;;;;59.87;34.87;;;4.00;65.10;;;;;;6246782;23;19996;-64
2023/02/12 00:58:08;;;;;;;57.67;33.33;;;3.90;65.00;;;;;;6246838;23;20004;-67
2023/02/12 01:00:35;;;;;;;58.10;34.70;;;3.90;64.70;;;;;;6246824;23;20008;-63
2023/02/12 01:03:00;;;;;;;56.57;33.33;;;3.90;65.10;;;;;;6246646;23;20003;-65
2023/02/12 01:05:26;;;;;;;61.93;34.23;;;3.90;65.20;;;;;;6246145;23;20014;-64
2023/02/12 01:07:53;;;;;;;53.60;33.33;;;3.90;65.40;;;;;;6246081;23;20004;-64
2023/02/12 01:10:19;;;;;;;48.60;31.93;;;3.80;65.60;;;;;;6246760;23;20013;-63
2023/02/12 01:12:46;;;;;;;61.73;34.27;;;3.80;65.70;;;;;;6246377;23;20087;-65
2023/02/12 01:15:12;;;;;;;58.20;35.07;;;3.80;65.70;;;;;;6246107;23;20055;-65
2023/02/12 01:17:38;;;;;;;57.10;35.17;;;3.80;65.60;;;;;;6246223;23;20011;-65
2023/02/12 01:20:07;;;;;;;63.93;35.67;;;3.80;65.50;;;;;;6246460;23;20000;-63
2023/02/12 01:22:37;;;;;;;56.93;33.47;;;3.80;65.50;;;;;;6246504;23;20004;-66
2023/02/12 01:25:04;;;;;;;58.43;33.40;;;3.80;65.70;;;;;;6246376;23;20076;-64
2023/02/12 01:27:30;;;;;;;63.50;35.60;;;3.80;65.70;;;;;;6246028;23;20004;-64
2023/02/12 01:29:56;;;;;;;58.93;35.20;;;3.80;66.30;;;;;;6245838;23;20024;-65
2023/02/12 01:32:22;;;;;;;59.43;34.40;;;3.80;65.60;;;;;;6246443;23;20000;-65
2023/02/12 01:34:48;;;;;;;54.23;33.23;;;3.80;65.60;;;;;;6245860;23;20000;-65
2023/02/12 01:37:13;;;;;;;55.73;33.37;;;3.80;65.90;;;;;;6245751;23;20075;-65
2023/02/12 01:39:39;;;;;;;61.00;33.97;;;3.70;65.80;;;;;;6246262;23;20030;-65
2023/02/12 01:42:05;;;;;;;57.50;32.00;;;3.70;66.20;;;;;;6246200;23;20075;-64
2023/02/12 01:44:34;;;;;;;53.57;31.87;;;3.70;66.00;;;;;;6246052;23;20312;-65
2023/02/12 01:47:05;;;;;;;50.80;32.03;;;3.70;66.20;;;;;;6245793;23;20008;-64
2023/02/12 01:49:45;;;;;;;48.23;30.07;;;3.70;66.20;;;;;;6246093;23;20368;-64
2023/02/12 01:52:26;;;;;;;53.63;31.73;;;3.70;66.40;;;;;;6246000;23;19996;-65
2023/02/12 01:54:55;;;;;;;51.33;30.17;;;3.60;66.40;;;;;;6218976;23;20004;-64
2023/02/12 01:57:21;;;;;;;50.37;29.90;;;3.60;66.40;;;;;;6245976;23;20304;-65
2023/02/12 01:59:51;;;;;;;54.63;30.53;;;3.60;66.40;;;;;;6241803;23;20087;-65
2023/02/12 02:02:16;;;;;;;47.50;27.93;;;3.60;66.50;;;;;;6242243;23;20004;-66
2023/02/12 02:04:50;;;;;;;47.93;27.30;;;3.50;66.40;;;;;;6243635;23;20077;-64
2023/02/12 02:07:16;;;;;;;42.17;26.70;;;3.50;66.30;;;;;;6245509;23;20012;-65
2023/02/12 02:09:42;;;;;;;42.40;26.83;;;3.50;66.60;;;;;;6245545;23;20035;-65
2023/02/12 02:14:56;;;;;;;47.43;26.67;;;3.50;67.00;;;;;;6245627;23;20014;-64
2023/02/12 02:17:31;;;;;;;50.00;28.10;;;3.50;67.20;;;;;;6245427;23;20009;-63
2023/02/12 02:20:02;;;;;;;48.40;27.43;;;3.40;67.00;;;;;;6245296;23;20004;-64
2023/02/12 02:22:28;;;;;;;49.40;29.40;;;3.40;66.90;;;;;;6245417;23;19996;-63
2023/02/12 02:25:15;;;;;;;51.03;28.13;;;3.40;67.20;;;;;;6245591;23;20004;-64
2023/02/12 02:27:46;;;;;;;50.93;28.53;;;3.40;67.80;;;;;;6245185;23;20008;-64
2023/02/12 02:30:23;;;;;;;49.93;28.47;;;3.40;67.10;;;;;;6245289;23;20407;-64
2023/02/12 02:32:56;;;;;;;46.27;27.77;;;3.40;66.90;;;;;;6245612;23;20418;-64
2023/02/12 02:35:48;;;;;;;46.77;27.30;;;3.30;66.70;;;;;;6245554;23;19996;-64
2023/02/12 02:38:50;;;;;;;44.87;26.10;;;3.30;66.70;;;;;;6223757;23;20008;-65
2023/02/12 02:41:24;;;;;;;49.87;27.50;;;3.30;66.90;;;;;;6245308;23;20000;-64
2023/02/12 02:43:51;;;;;;;46.10;26.60;;;3.30;67.30;;;;;;6245659;23;20004;-64
2023/02/12 02:46:22;;;;;;;45.93;26.37;;;3.30;67.20;;;;;;6245369;23;20015;-64
2023/02/12 02:49:00;;;;;;;50.33;27.40;;;3.30;67.50;;;;;;6245594;23;20026;-64
2023/02/12 02:51:33;;;;;;;54.10;28.77;;;3.30;67.50;;;;;;6245635;23;20020;-64
2023/02/12 02:54:07;;;;;;;45.70;27.80;;;3.30;67.30;;;;;;6245569;23;20030;-64
2023/02/12 02:56:36;;;;;;;42.20;26.43;;;3.20;67.20;;;;;;6245942;23;20010;-64
2023/02/12 02:59:22;;;;;;;49.93;28.57;;;3.30;67.20;;;;;;6244728;23;20435;-64
2023/02/12 03:01:56;;;;;;;48.47;28.30;;;3.20;67.20;;;;;;6244875;23;20000;-65
2023/02/12 03:04:45;;;;;;;48.17;27.93;;;3.20;67.10;;;;;;6245201;23;20000;-64
2023/02/12 03:07:18;;;;;;;49.43;27.17;;;3.20;67.20;;;;;;6245002;23;20023;-65
2023/02/12 03:09:49;;;;;;;47.40;28.77;;;3.20;67.40;;;;;;6245181;23;20000;-64
2023/02/12 03:12:20;;;;;;;46.30;27.77;;;3.20;67.30;;;;;;6245018;23;20004;-64
2023/02/12 03:14:52;;;;;;;52.17;27.13;;;3.20;67.30;;;;;;6245024;23;20050;-64
2023/02/12 03:17:26;;;;;;;47.85;27.10;;;3.20;67.50;;;;;;6244687;23;20065;-66
2023/02/12 03:20:01;;;;;;;43.30;26.57;;;3.20;67.60;;;;;;6244767;23;20000;-64
2023/02/12 03:22:38;;;;;;;48.00;26.90;;;3.10;67.60;;;;;;6245015;23;19996;-64
2023/02/12 03:25:16;;;;;;;44.00;26.57;;;3.10;67.50;;;;;;6245241;23;20004;-65
2023/02/12 03:27:52;;;;;;;48.37;27.43;;;3.10;67.70;;;;;;6245150;23;20009;-65
2023/02/12 03:30:19;;;;;;;47.63;27.33;;;3.10;67.70;;;;;;6244870;23;20075;-64
2023/02/12 03:32:56;;;;;;;48.40;27.73;;;3.10;67.60;;;;;;6245071;23;20012;-64
2023/02/12 03:35:32;;;;;;;46.87;28.27;;;3.10;67.50;;;;;;6244964;23;20010;-64
2023/02/12 03:38:18;;;;;;;48.60;26.90;;;3.10;67.50;;;;;;6245577;23;20059;-64
2023/02/12 03:40:59;;;;;;;44.80;26.37;;;3.00;67.10;;;;;;6223685;23;20004;-64
2023/02/12 03:43:32;;;;;;;44.73;26.07;;;3.00;67.50;;;;;;6245277;23;20011;-64
2023/02/12 03:46:39;;;;;;;46.80;26.60;;;3.00;67.40;;;;;;6245171;23;20334;-65
2023/02/12 03:49:28;;;;;;;44.43;25.73;;;2.90;67.40;;;;;;6244789;23;20485;-65
2023/02/12 03:51:54;;;;;;;43.33;25.73;;;2.90;67.50;;;;;;6245380;23;20000;-64
2023/02/12 03:54:21;;;;;;;45.63;26.77;;;2.90;67.60;;;;;;6245350;23;20078;-64
2023/02/12 03:57:04;;;;;;;48.20;26.77;;;2.90;67.90;;;;;;6245161;23;20001;-64
2023/02/12 03:59:30;;;;;;;;;;;2.90;67.90;;;;;;6245415;23;20012;-65
2023/02/12 04:01:58;;;;;;;38.47;24.37;;;2.90;68.00;;;;;;6244734;23;19900;-64
2023/02/12 04:04:24;;;;;;;42.13;25.30;;;2.80;67.90;;;;;;6244981;23;20334;-65
2023/02/12 04:06:51;;;;;;;43.87;24.03;;;2.80;67.90;;;;;;6244994;23;20019;-64
2023/02/12 04:09:18;;;;;;;37.80;24.90;;;2.80;68.10;;;;;;6245128;23;20012;-65
2023/02/12 04:12:01;;;;;;;42.13;25.77;;;2.80;68.40;;;;;;6245204;23;20001;-64
2023/02/12 04:14:43;;;;;;;45.83;27.08;;;2.80;68.40;;;;;;6245050;23;20187;-64
2023/02/12 04:17:13;;;;;;;44.77;27.17;;;2.70;68.20;;;;;;6245195;23;20149;-64
2023/02/12 04:20:09;;;;;;;46.43;26.87;;;2.70;68.50;;;;;;6244766;23;20024;-64
2023/02/12 04:22:53;;;;;;;44.70;26.50;;;2.70;68.40;;;;;;6244994;23;20019;-65
2023/02/12 04:25:48;;;;;;;44.70;26.90;;;2.70;68.20;;;;;;6245695;23;20000;-64
2023/02/12 04:28:42;;;;;;;44.53;25.27;;;2.70;68.10;;;;;;6246456;23;20343;-63
2023/02/12 04:31:21;;;;;;;46.27;27.33;;;2.70;68.00;;;;;;6246562;23;20443;-64
2023/02/12 04:34:14;;;;;;;43.97;24.70;;;2.70;68.20;;;;;;6246683;23;20138;-65
2023/02/12 04:36:55;;;;;;;37.73;24.27;;;2.60;68.10;;;;;;6246507;23;20004;-66
2023/02/12 04:39:26;;;;;;;44.20;25.27;;;2.60;68.10;;;;;;6246599;23;20004;-65
2023/02/12 04:41:52;;;;;;;42.53;26.53;;;2.60;68.10;;;;;;6246936;23;20011;-65
2023/02/12 04:44:17;;;;;;;48.87;27.70;;;2.60;67.90;;;;;;6246438;23;20004;-64
2023/02/12 04:46:43;;;;;;;42.67;25.07;;;2.60;68.00;;;;;;6246461;23;20019;-63
2023/02/12 04:49:14;;;;;;;42.70;25.20;;;2.50;68.00;;;;;;6246659;23;20000;-64
2023/02/12 04:51:40;;;;;;;43.50;25.57;;;2.50;68.10;;;;;;6246587;23;20003;-65
2023/02/12 04:54:06;;;;;;;41.30;23.63;;;2.50;68.20;;;;;;6246272;23;20005;-64
2023/02/12 04:56:31;;;;;;;38.13;22.63;;;2.50;68.50;;;;;;6246619;23;20010;-65
2023/02/12 04:58:57;;;;;;;45.80;23.70;;;2.40;68.50;;;;;;6246423;23;19996;-65
2023/02/12 05:01:23;;;;;;;39.33;23.90;;;2.50;68.40;;;;;;6246313;23;20078;-65
2023/02/12 05:03:50;;;;;;;35.03;22.47;;;2.40;68.30;;;;;;6246241;23;20075;-65
2023/02/12 05:06:16;;;;;;;42.00;24.53;;;2.40;68.40;;;;;;6245855;23;20012;-64
2023/02/12 05:08:41;;;;;;;42.20;25.13;;;2.40;68.50;;;;;;6246340;23;20000;-64
2023/02/12 05:11:08;;;;;;;42.90;25.43;;;2.40;68.50;;;;;;6246520;23;20004;-63
2023/02/12 05:13:34;;;;;;;38.73;24.33;;;2.40;67.90;;;;;;6246312;23;20316;-63
2023/02/12 05:16:03;;;;;;;39.30;24.00;;;2.40;68.10;;;;;;6246181;23;20003;-63
2023/02/12 05:18:30;;;;;;;39.60;24.60;;;2.40;67.50;;;;;;6246344;23;20162;-64
2023/02/12 05:20:57;;;;;;;40.17;23.70;;;2.40;67.30;;;;;;6246372;23;20319;-65
2023/02/12 05:23:26;;;;;;;40.33;22.83;;;2.40;67.20;;;;;;6246010;23;20145;-64
2023/02/12 05:25:52;;;;;;;41.77;24.10;;;2.40;67.30;;;;;;6245918;23;20008;-64
2023/02/12 05:28:17;;;;;;;36.83;23.23;;;2.30;67.70;;;;;;6245639;23;20007;-64
2023/02/12 05:30:43;;;;;;;35.90;22.27;;;2.30;67.40;;;;;;6246160;23;20389;-64
2023/02/12 05:33:09;;;;;;;37.80;22.37;;;2.20;67.30;;;;;;6245723;23;20007;-63
2023/02/12 05:35:34;;;;;;;39.97;22.60;;;2.20;68.00;;;;;;6245974;23;20007;-64
2023/02/12 05:38:00;;;;;;;39.97;22.93;;;2.10;68.40;;;;;;6246195;23;20087;-64
2023/02/12 05:40:26;;;;;;;39.73;22.90;;;2.20;68.40;;;;;;6245668;23;19996;-64
2023/02/12 05:42:51;;;;;;;40.90;22.40;;;2.10;68.00;;;;;;6245850;23;20023;-64
2023/02/12 05:45:17;;;;;;;39.47;22.83;;;2.10;67.90;;;;;;6246123;23;19996;-64
2023/02/12 05:47:43;;;;;;;41.00;24.00;;;2.10;68.00;;;;;;6246058;23;20000;-63
2023/02/12 05:50:09;;;;;;;38.07;23.60;;;2.20;68.10;;;;;;6245654;23;20000;-65
2023/02/12 05:52:34;;;;;;;42.70;24.33;;;2.20;68.10;;;;;;6246004;23;20011;-65
2023/02/12 05:55:00;;;;;;;35.83;22.93;;;2.20;67.50;;;;;;6245703;23;20407;-65
2023/02/12 05:57:26;;;;;;;40.87;23.27;;;2.20;67.60;;;;;;6245902;23;20070;-63
2023/02/12 05:59:51;;;;;;;40.50;22.80;;;2.10;67.50;;;;;;6245946;23;19996;-70
2023/02/12 06:02:17;;;;;;;36.23;22.40;;;2.10;67.60;;;;;;6245725;23;20000;-64
2023/02/12 06:04:42;;;;;;;38.70;23.87;;;2.10;67.60;;;;;;6245838;23;20000;-64
2023/02/12 06:07:08;;;;;;;41.63;23.00;;;2.10;67.80;;;;;;6245689;23;20035;-64
2023/02/12 06:09:34;;;;;;;43.00;23.27;;;2.10;67.90;;;;;;6245519;23;20002;-64
2023/02/12 06:12:00;;;;;;;39.57;22.87;;;2.10;68.00;;;;;;6245908;23;20414;-65
2023/02/12 06:14:25;;;;;;;38.53;23.43;;;2.10;68.00;;;;;;6245749;23;20075;-66
2023/02/12 06:16:51;;;;;;;40.27;25.60;;;2.00;67.90;;;;;;6245723;23;20030;-64
2023/02/12 06:19:18;;;;;;;36.17;23.63;;;2.10;68.00;;;;;;6245033;23;20001;-64
2023/02/12 06:21:44;;;;;;;39.33;22.60;;;2.00;68.00;;;;;;6245426;23;20362;-64
2023/02/12 06:24:12;;;;;;;36.50;22.63;;;2.10;68.20;;;;;;6245868;23;20390;-64
2023/02/12 06:26:38;;;;;;;38.43;23.03;;;2.00;68.60;;;;;;6245654;23;20019;-65
2023/02/12 06:29:03;;;;;;;41.53;25.07;;;2.00;68.60;;;;;;6246172;23;20008;-64
2023/02/12 06:31:31;;;;;;;36.07;21.50;;;2.00;68.60;;;;;;6245503;23;20004;-66
2023/02/12 06:34:02;;;;;;;43.50;22.30;;;2.00;68.50;;;;;;6245545;23;20381;-64
2023/02/12 06:36:28;;;;;;;35.13;21.77;;;2.10;68.40;;;;;;6245607;23;20000;-65
2023/02/12 06:38:53;;;;;;;40.43;22.33;;;2.10;68.40;;;;;;6245606;23;20126;-65
2023/02/12 06:41:20;;;;;;;37.13;21.90;;;2.10;68.50;;;;;;6245382;23;20442;-65
2023/02/12 06:43:45;;;;;;;41.60;21.73;;;2.10;68.20;;;;;;6245051;23;20450;-64
2023/02/12 06:46:12;;;;;;;40.23;21.97;;;2.10;68.10;;;;;;6245124;23;20012;-66
2023/02/12 06:48:37;;;;;;;35.03;22.27;;;2.10;68.40;;;;;;6245111;23;20071;-65
2023/02/12 06:51:10;;;;;;;39.17;23.10;;;2.10;68.60;;;;;;6245531;23;20050;-66
2023/02/12 06:53:36;;;;;;;;;;;2.10;68.10;;;;;;6246046;23;19996;-64
2023/02/12 06:56:04;;;;;;;37.00;22.80;;;2.10;68.20;;;;;;6245233;23;19958;-64
2023/02/12 06:58:29;;;;;;;38.30;22.90;;;2.10;68.00;;;;;;6244177;23;20000;-65
2023/02/12 07:00:55;;;;;;;36.47;22.37;;;2.10;68.20;;;;;;6244795;23;20007;-65
2023/02/12 07:03:21;;;;;;;34.83;22.30;;;2.10;68.30;;;;;;6245218;23;20004;-64
2023/02/12 07:05:47;;;;;;;39.73;20.27;;;2.10;68.20;;;;;;6246076;23;20015;-64
2023/02/12 07:08:13;;;;;;;40.30;22.83;;;2.10;68.30;;;;;;6245019;23;20000;-65
2023/02/12 07:10:39;;;;;;;36.83;21.80;;;2.10;68.30;;;;;;6244998;23;20091;-64
2023/02/12 07:13:04;;;;;;;38.43;22.27;;;2.10;68.40;;;;;;6245072;23;20376;-65
2023/02/12 07:15:30;;;;;;;36.63;22.07;;;2.20;68.60;;;;;;6244853;23;20003;-63
2023/02/12 07:17:56;;;;;;;39.43;23.53;;;2.20;68.70;;;;;;6244784;23;20019;-64
2023/02/12 07:20:23;;;;;;;40.70;24.83;;;2.30;68.50;;;;;;6245043;23;20524;-63
2023/02/12 07:22:48;;;;;;;43.93;25.03;;;2.30;68.70;;;;;;6245449;23;20004;-64
2023/02/12 07:25:14;;;;;;;39.67;26.40;;;2.30;68.70;;;;;;6244692;23;20043;-65
2023/02/12 07:27:39;;;;;;;40.60;24.57;;;2.40;68.70;;;;;;6245333;23;20032;-64
2023/02/12 07:30:06;;;;;;;40.37;25.57;;;2.40;68.80;;;;;;6245175;23;20007;-63
2023/02/12 07:32:33;;;;;;;42.27;25.77;;;2.40;68.70;;;;;;6245222;23;20004;-64
2023/02/12 07:34:59;;;;;;;46.67;29.07;;;2.40;68.70;;;;;;6244081;23;19996;-64
2023/02/12 07:37:24;;;;;;;51.30;30.57;;;2.50;68.80;;;;;;6244711;23;20011;-66
2023/02/12 07:39:50;;;;;;;47.90;28.60;;;2.50;68.80;;;;;;6245320;23;20004;-65
2023/02/12 07:42:16;;;;;;;38.97;24.63;;;2.60;68.80;;;;;;6243602;23;20007;-64
2023/02/12 07:44:42;;;;;;;42.80;24.80;;;2.60;68.40;;;;;;6241613;23;20058;-67
2023/02/12 07:47:08;;;;;;;41.63;24.83;;;2.60;68.40;;;;;;6241446;23;20012;-71
2023/02/12 07:49:34;;;;;;;38.37;23.70;;;2.70;68.30;;;;;;6241329;23;20008;-64
2023/02/12 07:51:59;;;;;;;37.37;22.90;;;2.70;68.20;;;;;;6241655;23;20009;-67
2023/02/12 07:54:25;;;;;;;43.53;24.43;;;2.70;68.40;;;;;;6217185;23;20054;-63
2023/02/12 07:56:51;;;;;;;43.40;26.23;;;2.80;68.20;;;;;;6244461;23;20001;-64
2023/02/12 07:59:18;;;;;;;43.23;25.10;;;2.80;68.20;;;;;;6245153;23;20330;-63
2023/02/12 08:01:51;;;;;;;43.73;26.93;;;2.90;68.70;;;;;;6246636;23;20083;-65
2023/02/12 08:04:20;;;;;;;46.87;26.63;;;2.90;67.90;;;;;;6246811;23;20000;-66
2023/02/12 08:06:48;;;;;;;50.60;27.13;;;3.00;67.90;;;;;;6246418;23;20008;-64
2023/02/12 08:09:19;;;;;;;40.70;24.90;;;3.00;68.00;;;;;;6247431;23;20003;-64
2023/02/12 08:11:45;;;;;;;45.23;25.67;;;3.10;67.90;;;;;;6246673;23;20011;-64
2023/02/12 08:14:13;;;;;;;48.80;25.50;;;3.20;67.80;;;;;;6246363;23;20074;-65
2023/02/12 08:16:40;;;;;;;40.73;25.13;;;3.20;67.60;;;;;;6246648;23;20500;-66
2023/02/12 08:19:07;;;;;;;42.50;26.10;;;3.30;67.80;;;;;;6245778;23;20020;-71
2023/02/12 08:21:33;;;;;;;39.37;24.73;;;3.40;67.90;;;;;;6243428;23;20036;-67
2023/02/12 08:23:59;;;;;;;37.00;23.67;;;3.40;68.10;;;;;;6216724;23;20000;-66
2023/02/12 08:26:32;;;;;;;39.17;22.83;;;3.50;68.10;;;;;;6244912;23;20134;-70
2023/02/12 08:28:59;;;;;;;;;;;3.60;68.50;;;;;;6246881;23;20001;-65
2023/02/12 08:31:30;;;;;;;31.57;19.43;;;3.60;67.50;;;;;;6246839;23;19899;-66
2023/02/12 08:33:57;;;;;;;35.07;20.27;;;3.70;67.30;;;;;;6246392;23;20004;-64
2023/02/12 08:36:34;;;;;;;32.13;20.23;;;3.70;67.00;;;;;;6246631;23;20071;-64
2023/02/12 08:38:59;;;;;;;32.07;19.90;;;3.80;66.90;;;;;;6246478;23;20054;-65
2023/02/12 08:41:27;;;;;;;32.53;18.20;;;3.80;66.80;;;;;;6246107;23;20000;-66
2023/02/12 08:43:55;;;;;;;28.37;17.60;;;3.80;67.00;;;;;;6246084;23;20000;-63
2023/02/12 08:46:29;;;;;;;35.07;18.37;;;3.80;66.90;;;;;;6245811;23;20079;-65
2023/02/12 08:48:58;;;;;;;32.30;18.87;;;3.90;66.80;;;;;;6244028;23;20004;-65
2023/02/12 08:51:27;;;;;;;31.63;18.87;;;3.90;67.00;;;;;;6242857;23;20007;-64
2023/02/12 08:53:54;;;;;;;29.90;18.23;;;4.00;66.80;;;;;;6244662;23;20483;-63
2023/02/12 08:56:21;;;;;;;30.23;18.03;;;4.00;66.90;;;;;;6246572;23;20081;-63
2023/02/12 08:58:47;;;;;;;33.10;18.87;;;4.00;66.90;;;;;;6246038;23;20011;-65
2023/02/12 09:01:19;;;;;;;33.33;19.03;;;4.10;66.80;;;;;;6246278;23;20331;-63
2023/02/12 09:03:46;;;;;;;31.77;18.50;;;4.20;67.00;;;;;;6246524;23;20079;-64
2023/02/12 09:06:13;;;;;;;31.50;18.23;;;4.20;67.20;;;;;;6246050;23;20339;-64
2023/02/12 09:08:39;;;;;;;29.83;18.07;;;4.20;67.10;;;;;;6245602;23;19996;-65
2023/02/12 09:11:17;;;;;;;35.43;17.80;;;4.30;66.90;;;;;;6245435;23;20008;-65
2023/02/12 09:13:45;;;;;;;28.27;17.10;;;4.30;66.80;;;;;;6246069;23;20071;-65
2023/02/12 09:16:11;;;;;;;26.63;18.10;;;4.30;66.80;;;;;;6245578;23;20032;-65
2023/02/12 09:18:37;;;;;;;30.23;19.27;;;4.40;67.10;;;;;;6243684;23;20017;-65
2023/02/12 09:21:06;;;;;;;27.83;16.83;;;4.50;67.10;;;;;;6242869;23;20004;-64
2023/02/12 09:23:32;;;;;;;26.23;16.43;;;4.50;66.60;;;;;;6244415;23;20003;-64
2023/02/12 09:25:58;;;;;;;31.60;16.63;;;4.60;66.00;;;;;;6245948;23;20015;-64
2023/02/12 09:28:24;;;;;;;24.20;15.40;;;4.60;65.40;;;;;;6246042;23;20000;-65
2023/02/12 09:30:50;;;;;;;27.20;16.60;;;4.70;65.00;;;;;;6246036;23;20004;-66
2023/02/12 09:33:16;;;;;;;24.30;16.50;;;4.70;65.10;;;;;;6245982;23;20000;-65
2023/02/12 09:35:41;;;;;;;23.83;15.40;;;4.80;65.20;;;;;;6245945;23;20419;-65
2023/02/12 09:38:08;;;;;;;22.53;15.37;;;4.80;65.30;;;;;;6245630;23;20423;-64
2023/02/12 09:41:15;;;;;;;22.20;14.07;;;4.90;65.10;;;;;;6246145;23;20418;-64
2023/02/12 09:43:52;;;;;;;22.47;15.40;;;5.00;64.60;;;;;;6227370;23;20008;-65
2023/02/12 09:46:29;;;;;;;29.07;16.77;;;5.00;64.00;;;;;;6242579;23;20050;-65
2023/02/12 09:49:08;;;;;;;27.57;15.43;;;5.10;63.90;;;;;;6242884;23;20004;-64
2023/02/12 09:51:37;;;;;;;30.80;17.67;;;5.20;63.90;;;;;;6246110;23;20074;-65
2023/02/12 09:54:13;;;;;;;29.43;18.20;;;5.30;64.00;;;;;;6245572;23;19996;-66
2023/02/12 09:56:40;;;;;;;31.23;17.00;;;5.40;64.20;;;;;;6245654;23;20000;-63
2023/02/12 09:59:08;;;;;;;24.93;16.13;;;5.40;64.30;;;;;;6245080;23;20007;-65
2023/02/12 10:01:34;;;;;;;25.90;15.90;;;5.50;64.30;;;;;;6244038;23;20075;-64
2023/02/12 10:04:01;;;;;;;25.53;14.93;;;5.50;64.00;;;;;;6244441;23;20331;-64
2023/02/12 10:06:30;;;;;;;23.23;15.00;;;5.60;64.10;;;;;;6243893;23;20045;-63
2023/02/12 10:09:17;;;;;;;23.17;15.13;;;5.70;64.10;;;;;;6244145;23;20027;-65
2023/02/12 10:11:43;;;;;;;24.57;14.60;;;5.80;63.70;;;;;;6244269;23;20003;-64
2023/02/12 10:14:23;;;;;;;28.50;15.43;;;5.80;64.00;;;;;;6244595;23;20004;-64
2023/02/12 10:17:20;;;;;;;24.00;16.23;;;5.90;63.70;;;;;;6244861;23;20034;-65
2023/02/12 10:20:00;;;;;;;22.53;15.43;;;6.10;64.00;;;;;;6244903;23;20038;-64
2023/02/12 10:22:53;;;;;;;22.17;12.43;;;6.20;63.80;;;;;;6243781;23;20001;-65
2023/02/12 10:25:36;;;;;;;23.20;13.83;;;6.30;63.80;;;;;;6244553;23;20004;-64
2023/02/12 10:28:11;;;;;;;22.37;12.63;;;6.40;63.20;;;;;;6217669;23;20012;-62
2023/02/12 10:30:56;;;;;;;16.67;10.77;;;6.50;62.80;;;;;;6244470;23;20030;-63
2023/02/12 10:33:38;;;;;;;16.70;11.03;;;6.60;62.40;;;;;;6245142;23;20431;-65
2023/02/12 10:36:10;;;;;;;17.37;10.73;;;6.70;62.40;;;;;;6244724;23;20450;-65
2023/02/12 10:38:41;;;;;;;15.77;10.23;;;6.90;62.20;;;;;;6245214;23;20031;-62
2023/02/12 10:41:11;;;;;;;24.50;13.60;;;7.00;61.10;;;;;;6245204;23;20455;-63
2023/02/12 10:43:36;;;;;;;62.70;36.43;;;7.10;60.00;;;;;;6244468;23;20071;-64
2023/02/12 10:46:02;;;;;;;60.10;27.90;;;7.20;60.00;;;;;;6244506;23;20039;-66
2023/02/12 10:48:36;;;;;;;26.97;14.90;;;7.40;60.20;;;;;;6244720;23;20000;-63
2023/02/12 10:51:08;;;;;;;23.30;10.43;;;7.50;59.30;;;;;;6244347;23;20004;-65
2023/02/12 10:53:37;;;;;;;14.30;9.23;;;7.60;58.90;;;;;;6244757;23;20075;-63
2023/02/12 10:56:10;;;;;;;15.70;9.90;;;7.70;58.60;;;;;;6244574;23;20000;-63
2023/02/12 10:58:39;;;;;;;16.97;10.40;;;7.90;58.60;;;;;;6244096;23;19996;-63
2023/02/12 11:01:16;;;;;;;13.97;9.37;;;8.00;58.50;;;;;;6244649;23;20028;-63
2023/02/12 11:03:42;;;;;;;22.37;9.60;;;8.20;58.40;;;;;;6244562;23;19996;-63
2023/02/12 11:06:24;;;;;;;14.90;8.80;;;8.40;57.80;;;;;;6243562;23;20015;-62
2023/02/12 11:08:50;;;;;;;15.63;7.73;;;8.50;56.60;;;;;;6244497;23;19996;-63
2023/02/12 11:11:21;;;;;;;14.90;6.17;;;8.70;54.60;;;;;;6244432;23;20004;-64
2023/02/12 11:13:57;;;;;;;9.20;6.83;;;8.80;54.00;;;;;;6244815;23;20061;-64
2023/02/12 11:16:35;;;;;;;9.07;6.93;;;9.00;52.30;;;;;;6219401;23;20007;-64
2023/02/12 11:19:03;;;;;;;10.47;8.03;;;9.10;52.10;;;;;;6245215;23;20012;-63
2023/02/12 11:21:29;;;;;;;12.30;6.97;;;9.30;51.80;;;;;;6242364;23;20004;-64
2023/02/12 11:23:55;;;;;;;8.43;5.83;;;9.30;51.20;;;;;;6244370;23;20377;-63
2023/02/12 11:26:27;;;;;;;7.70;6.00;;;9.40;51.10;;;;;;6245180;23;20035;-64
2023/02/12 11:28:59;;;;;;;8.97;5.63;;;9.50;51.20;;;;;;6244423;23;20054;-63
2023/02/12 11:31:33;;;;;;;12.20;6.57;;;9.50;50.70;;;;;;6244812;23;20234;-63
2023/02/12 11:34:18;;;;;;;15.47;6.47;;;9.50;50.80;;;;;;6245012;23;20480;-66
2023/02/12 11:36:49;;;;;;;10.87;6.20;;;9.60;50.40;;;;;;6246299;23;20007;-64
2023/02/12 11:39:23;;;;;;;10.63;5.83;;;9.60;49.50;;;;;;6246226;23;20423;-64
2023/02/12 11:42:00;;;;;;;9.63;6.10;;;9.70;49.40;;;;;;6246765;23;20138;-64
2023/02/12 11:44:36;;;;;;;9.43;5.33;;;9.80;49.20;;;;;;6246051;23;20004;-64
2023/02/12 11:47:07;;;;;;;8.47;5.10;;;9.90;49.20;;;;;;6246704;23;20012;-64
2023/02/12 11:49:37;;;;;;;10.70;4.90;;;10.00;49.10;;;;;;6246913;23;20354;-64
2023/02/12 11:52:05;;;;;;;7.60;4.77;;;10.00;49.00;;;;;;6246390;23;20066;-65
2023/02/12 11:54:41;;;;;;;8.83;5.23;;;10.00;49.00;;;;;;6246810;23;20012;-64
2023/02/12 11:57:30;;;;;;;7.40;4.97;;;10.10;48.10;;;;;;6246428;23;20004;-67
2023/02/12 11:59:56;;;;;;;8.80;5.37;;;10.10;48.60;;;;;;6180661;23;20004;-64
2023/02/12 12:02:31;;;;;;;7.53;5.30;;;10.10;48.60;;;;;;6243667;23;20438;-65
2023/02/12 12:05:08;;;;;;;9.03;4.93;;;10.20;48.50;;;;;;6246159;23;20000;-65
2023/02/12 12:07:38;;;;;;;8.27;4.93;;;10.20;48.00;;;;;;6245935;23;20069;-65
2023/02/12 12:10:19;;;;;;;6.67;4.63;;;10.30;48.60;;;;;;6246480;23;20431;-62
2023/02/12 12:12:55;;;;;;;8.93;4.50;;;10.50;48.10;;;;;;6246487;23;20014;-64
2023/02/12 12:21:40;;;;;;;7.37;4.17;;;10.80;49.20;;;;;;6246693;23;20107;-63
2023/02/12 12:24:12;;;;;;;6.83;4.60;;;11.00;49.00;;;;;;6243488;23;20072;-64
2023/02/12 12:26:41;;;;;;;6.85;4.53;;;11.10;48.50;;;;;;6242560;23;20016;-64
2023/02/12 12:29:33;;;;;;;8.48;4.82;;;11.30;48.30;;;;;;6243664;23;20003;-64
2023/02/12 12:32:02;;;;;;;11.55;5.07;;;11.40;48.00;;;;;;6246264;23;20076;-64
2023/02/12 12:34:28;;;;;;;8.10;5.35;;;11.50;47.60;;;;;;6246684;23;20007;-65
2023/02/12 12:37:25;;;;;;;11.73;5.90;;;11.60;47.30;;;;;;6246273;23;20418;-65
2023/02/12 12:40:08;;;;;;;7.00;4.50;;;11.70;47.20;;;;;;6219645;23;20000;-65
2023/02/12 12:43:01;;;;;;;7.28;5.18;;;11.80;46.50;;;;;;6245637;23;20004;-63
2023/02/12 12:45:58;;;;;;;10.70;5.50;;;11.90;46.30;;;;;;6245972;23;20000;-64
2023/02/12 12:48:46;;;;;;;8.25;5.50;;;12.00;46.00;;;;;;6246931;23;20023;-65
2023/02/12 12:51:24;;;;;;;9.93;6.18;;;12.20;46.60;;;;;;6246398;23;20006;-65
2023/02/12 12:54:20;;;;;;;10.60;6.28;;;12.30;45.80;;;;;;6245736;23;20028;-64
2023/02/12 12:57:38;;;;;;;12.10;6.65;;;12.50;46.30;;;;;;6245862;23;20000;-65
2023/02/12 13:00:30;;;;;;;13.32;8.40;;;12.70;44.70;;;;;;6162787;23;20027;-65
2023/02/12 13:02:59;;;;;;;13.03;9.43;;;12.80;45.10;;;;;;6246382;23;20027;-64
2023/02/12 13:05:42;;;;;;;12.02;8.40;;;12.90;45.30;;;;;;6246282;23;20007;-64
2023/02/12 13:08:33;;;;;;;12.00;8.65;;;13.00;45.00;;;;;;6246746;23;20015;-65